createdAt,value
2023-01-04T00:00:00.354Z,98.72
2023-01-04T00:02:29.349Z,98.49
2023-01-04T00:04:57.824Z,98.39
2023-01-04T00:07:26.333Z,98.31
2023-01-04T00:09:54.715Z,98.59
2023-01-04T00:12:23.675Z,98.90
2023-01-04T00:14:51.916Z,99.00
2023-01-04T00:17:20.241Z,99.06
2023-01-04T00:19:48.634Z,98.99
2023-01-04T00:22:16.906Z,99.19
2023-01-04T00:24:45.634Z,99.32
2023-01-04T00:27:13.963Z,99.45
2023-01-04T00:29:42.183Z,99.32
2023-01-04T00:32:10.481Z,99.36
2023-01-04T00:34:38.811Z,99.61
2023-01-04T00:37:07.675Z,99.85
2023-01-04T00:39:35.927Z,99.96
2023-01-04T00:42:07.214Z,99.96
2023-01-04T00:44:35.816Z,99.94
2023-01-04T00:47:04.897Z,100.00
2023-01-04T00:49:33.433Z,100.00
2023-01-04T00:52:02.026Z,99.96
2023-01-04T00:54:30.484Z,99.90
2023-01-04T00:56:59.015Z,99.97
2023-01-04T00:59:27.852Z,100.00
2023-01-04T01:01:56.308Z,100.00
2023-01-04T01:04:24.962Z,100.00
2023-01-04T01:06:53.409Z,100.00
2023-01-04T01:09:24.893Z,100.00
2023-01-04T01:11:54.095Z,100.00
2023-01-04T01:14:25.226Z,100.00
2023-01-04T01:16:57.703Z,100.00
2023-01-04T01:19:29.686Z,100.00
2023-01-04T01:21:58.559Z,100.00
2023-01-04T01:24:27.656Z,100.00
2023-01-04T01:26:56.761Z,100.00
2023-01-04T01:29:25.417Z,100.00
2023-01-04T01:31:54.508Z,100.00
2023-01-04T01:34:23.044Z,100.00
2023-01-04T01:36:51.359Z,100.00
2023-01-04T01:39:19.871Z,100.00
2023-01-04T01:41:48.373Z,100.00
2023-01-04T01:44:45.295Z,100.00
2023-01-04T01:47:31.139Z,100.00
2023-01-04T01:50:01.121Z,100.00
2023-01-04T01:52:38.019Z,100.00
2023-01-04T01:55:10.676Z,100.00
2023-01-04T01:57:39.973Z,100.00
2023-01-04T02:00:12.878Z,100.00
2023-01-04T02:03:03.885Z,100.00
2023-01-04T02:05:34.197Z,100.00
2023-01-04T02:08:03.856Z,100.00
2023-01-04T02:10:33.155Z,100.00
2023-01-04T02:13:08.132Z,100.00
2023-01-04T02:16:19.890Z,100.00
2023-01-04T02:19:05.891Z,100.00
2023-01-04T02:22:03.111Z,100.00
2023-01-04T02:25:00.239Z,100.00
2023-01-04T02:27:53.393Z,100.00
2023-01-04T02:30:44.831Z,100.00
2023-01-04T02:33:28.434Z,100.00
2023-01-04T02:36:22.543Z,100.00
2023-01-04T02:39:10.476Z,100.00
2023-01-04T02:41:41.807Z,100.00
2023-01-04T02:44:37.685Z,100.00
2023-01-04T02:47:12.672Z,100.00
2023-01-04T02:50:04.528Z,100.00
2023-01-04T02:52:34.074Z,100.00
2023-01-04T02:55:06.908Z,100.00
2023-01-04T02:57:55.690Z,100.00
2023-01-04T03:01:17.050Z,100.00
2023-01-04T03:04:19.716Z,100.00
2023-01-04T03:07:11.369Z,100.00
2023-01-04T03:09:44.682Z,100.00
2023-01-04T03:12:32.143Z,100.00
2023-01-04T03:15:18.229Z,100.00
2023-01-04T03:17:59.910Z,100.00
2023-01-04T03:20:32.424Z,100.00
2023-01-04T03:23:26.902Z,100.00
2023-01-04T03:26:27.296Z,100.00
2023-01-04T03:29:22.946Z,100.00
2023-01-04T03:32:36.529Z,100.00
2023-01-04T03:35:23.716Z,100.00
2023-01-04T03:38:17.288Z,100.00
2023-01-04T03:41:13.442Z,100.00
2023-01-04T03:44:09.108Z,100.00
2023-01-04T03:47:10.268Z,100.00
2023-01-04T03:49:57.430Z,100.00
2023-01-04T03:52:28.530Z,100.00
2023-01-04T03:54:59.006Z,100.00
2023-01-04T03:57:27.820Z,100.00
2023-01-04T04:00:03.107Z,100.00
2023-01-04T04:02:34.937Z,100.00
2023-01-04T04:05:22.978Z,100.00
2023-01-04T04:08:09.947Z,100.00
2023-01-04T04:10:38.209Z,100.00
2023-01-04T04:13:06.516Z,100.00
2023-01-04T04:15:36.775Z,100.00
2023-01-04T04:18:05.128Z,100.00
2023-01-04T04:20:33.550Z,100.00
2023-01-04T04:23:02.009Z,100.00
2023-01-04T04:25:30.417Z,100.00
2023-01-04T04:27:58.744Z,100.00
2023-01-04T04:30:27.015Z,100.00
2023-01-04T04:32:56.171Z,100.00
2023-01-04T04:35:24.603Z,100.00
2023-01-04T04:37:52.900Z,100.00
2023-01-04T04:40:39.690Z,100.00
2023-01-04T04:43:09.323Z,100.00
2023-01-04T04:45:37.655Z,100.00
2023-01-04T04:48:06.091Z,100.00
2023-01-04T04:50:34.438Z,100.00
2023-01-04T04:53:02.779Z,100.00
2023-01-04T04:55:33.346Z,100.00
2023-01-04T04:58:01.679Z,100.00
2023-01-04T05:00:29.998Z,100.00
2023-01-04T05:02:59.495Z,100.00
2023-01-04T05:05:28.462Z,100.00
2023-01-04T05:07:56.736Z,100.00
2023-01-04T05:10:25.039Z,100.00
2023-01-04T05:13:02.205Z,100.00
2023-01-04T05:15:32.926Z,100.00
2023-01-04T05:18:01.695Z,100.00
2023-01-04T05:20:30.063Z,100.00
2023-01-04T05:22:58.482Z,100.00
2023-01-04T05:25:27.218Z,100.00
2023-01-04T05:27:56.473Z,100.00
2023-01-04T05:30:44.021Z,100.00
2023-01-04T05:33:12.642Z,100.00
2023-01-04T05:35:41.109Z,100.00
2023-01-04T05:38:09.418Z,100.00
2023-01-04T05:40:37.975Z,100.00
2023-01-04T05:43:06.475Z,100.00
2023-01-04T05:45:35.567Z,100.00
2023-01-04T05:48:04.105Z,100.00
2023-01-04T05:50:32.589Z,100.00
2023-01-04T05:53:06.912Z,100.00
2023-01-04T05:55:35.255Z,100.00
2023-01-04T05:58:04.037Z,100.00
2023-01-04T06:00:32.457Z,100.00
2023-01-04T06:03:01.136Z,100.00
2023-01-04T06:05:29.689Z,100.00
2023-01-04T06:07:58.068Z,100.00
2023-01-04T06:10:26.362Z,100.00
2023-01-04T06:12:54.725Z,100.00
2023-01-04T06:15:23.216Z,100.00
2023-01-04T06:17:51.630Z,100.00
2023-01-04T06:20:20.065Z,100.00
2023-01-04T06:22:48.567Z,100.00
2023-01-04T06:25:17.414Z,100.00
2023-01-04T06:27:45.923Z,100.00
2023-01-04T06:30:14.418Z,100.00
2023-01-04T06:32:43.561Z,100.00
2023-01-04T06:35:12.073Z,100.00
2023-01-04T06:37:40.805Z,100.00
2023-01-04T06:40:11.219Z,100.00
2023-01-04T06:42:45.389Z,100.00
2023-01-04T06:45:15.590Z,100.00
2023-01-04T06:47:44.140Z,100.00
2023-01-04T06:50:14.714Z,100.00
2023-01-04T06:52:43.319Z,100.00
2023-01-04T06:55:11.840Z,100.00
2023-01-04T06:57:42.299Z,100.00
2023-01-04T07:00:11.383Z,100.00
2023-01-04T07:02:39.932Z,100.00
2023-01-04T07:05:28.317Z,100.00
2023-01-04T07:08:07.350Z,100.00
2023-01-04T07:10:36.835Z,100.00
2023-01-04T07:13:05.936Z,100.00
2023-01-04T07:15:39.220Z,100.00
2023-01-04T07:18:10.283Z,100.00
2023-01-04T07:20:39.291Z,100.00
2023-01-04T07:23:09.335Z,100.00
2023-01-04T07:25:37.849Z,100.00
2023-01-04T07:28:06.515Z,100.00
2023-01-04T07:30:34.912Z,100.00
2023-01-04T07:33:03.507Z,100.00
2023-01-04T07:35:31.848Z,100.00
2023-01-04T07:38:00.337Z,100.00
2023-01-04T07:40:28.926Z,100.00
2023-01-04T07:42:58.946Z,100.00
2023-01-04T07:45:27.885Z,100.00
2023-01-04T07:47:57.824Z,100.00
2023-01-04T07:50:26.296Z,100.00
2023-01-04T07:52:55.034Z,100.00
2023-01-04T07:55:23.416Z,100.00
2023-01-04T07:57:53.413Z,100.00
2023-01-04T08:00:21.881Z,100.00
2023-01-04T08:02:50.482Z,100.00
2023-01-04T08:05:25.028Z,100.00
2023-01-04T08:07:53.448Z,100.00
2023-01-04T08:10:22.012Z,100.00
2023-01-04T08:12:50.415Z,100.00
2023-01-04T08:15:19.677Z,100.00
2023-01-04T08:17:48.047Z,100.00
2023-01-04T08:20:16.590Z,100.00
2023-01-04T08:22:45.015Z,100.00
2023-01-04T08:25:14.149Z,100.00
2023-01-04T08:27:42.547Z,100.00
2023-01-04T08:30:11.292Z,100.00
2023-01-04T08:32:40.732Z,100.00
2023-01-04T08:35:09.233Z,100.00
2023-01-04T08:37:37.639Z,100.00
2023-01-04T08:40:06.670Z,100.00
2023-01-04T08:42:35.081Z,100.00
2023-01-04T08:45:03.885Z,100.00
2023-01-04T08:47:33.098Z,100.00
2023-01-04T08:50:08.244Z,100.00
2023-01-04T08:52:39.047Z,100.00
2023-01-04T08:55:12.696Z,100.00
2023-01-04T08:57:42.431Z,100.00
2023-01-04T09:00:11.521Z,100.00
2023-01-04T09:02:40.186Z,100.00
2023-01-04T09:05:09.040Z,100.00
2023-01-04T09:07:37.552Z,100.00
2023-01-04T09:10:06.327Z,100.00
2023-01-04T09:12:34.715Z,100.00
2023-01-04T09:15:03.535Z,100.00
2023-01-04T09:17:31.887Z,100.00
2023-01-04T09:20:00.627Z,100.00
2023-01-04T09:22:31.550Z,100.00
2023-01-04T09:25:00.043Z,100.00
2023-01-04T09:27:28.547Z,100.00
2023-01-04T09:29:56.963Z,100.00
2023-01-04T09:32:25.896Z,100.00
2023-01-04T09:34:56.371Z,100.00
2023-01-04T09:37:24.769Z,100.00
2023-01-04T09:39:53.090Z,100.00
2023-01-04T09:42:35.046Z,100.00
2023-01-04T09:45:27.086Z,100.00
2023-01-04T09:48:10.537Z,100.00
2023-01-04T09:51:03.917Z,100.00
2023-01-04T09:53:44.528Z,100.00
2023-01-04T09:56:31.578Z,100.00
2023-01-04T09:59:09.417Z,100.00
2023-01-04T10:01:50.105Z,99.60
2023-01-04T10:04:44.764Z,98.55
2023-01-04T10:07:29.089Z,97.60
2023-01-04T10:09:58.675Z,96.67
2023-01-04T10:12:42.241Z,95.95
2023-01-04T10:15:21.498Z,94.86
2023-01-04T10:20:16.347Z,93.52
2023-01-04T10:23:57.317Z,91.43
2023-01-04T10:26:50.317Z,90.62
2023-01-04T10:29:37.166Z,90.10
2023-01-04T10:32:13.214Z,88.67
2023-01-04T10:34:47.827Z,87.60
2023-01-04T10:37:21.129Z,86.98
2023-01-04T10:39:55.777Z,85.19
2023-01-04T10:42:26.994Z,82.64
2023-01-04T10:45:23.215Z,81.38
2023-01-04T10:48:05.536Z,81.96
2023-01-04T10:50:42.479Z,80.77
2023-01-04T10:53:37.542Z,79.90
2023-01-04T10:56:25.088Z,79.89
2023-01-04T10:59:18.444Z,79.86
2023-01-04T11:02:06.996Z,79.80
2023-01-04T11:04:42.720Z,79.79
2023-01-04T11:07:20.458Z,78.31
2023-01-04T11:09:57.887Z,78.11
2023-01-04T11:12:26.618Z,77.34
2023-01-04T11:14:55.015Z,76.68
2023-01-04T11:17:25.102Z,74.88
2023-01-04T11:19:54.553Z,74.16
2023-01-04T11:22:36.805Z,73.84
2023-01-04T11:25:35.544Z,72.92
2023-01-04T11:28:23.112Z,73.07
2023-01-04T11:31:09.871Z,73.06
2023-01-04T11:33:56.458Z,71.99
2023-01-04T11:36:44.130Z,71.73
2023-01-04T11:39:24.826Z,71.43
2023-01-04T11:42:02.618Z,69.38
2023-01-04T11:44:34.055Z,67.35
2023-01-04T11:47:20.600Z,65.14
2023-01-04T11:49:51.721Z,66.42
2023-01-04T11:52:37.561Z,67.58
2023-01-04T11:55:26.304Z,68.31
2023-01-04T11:58:11.273Z,68.65
2023-01-04T12:00:54.347Z,69.47
2023-01-04T12:03:34.512Z,70.04
2023-01-04T12:06:18.534Z,70.18
2023-01-04T12:08:48.061Z,70.24
2023-01-04T12:11:28.226Z,71.49
2023-01-04T12:14:00.800Z,71.90
2023-01-04T12:16:56.975Z,72.15
2023-01-04T12:19:25.849Z,71.53
2023-01-04T12:21:58.430Z,71.74
2023-01-04T12:24:30.092Z,71.72
2023-01-04T12:26:59.694Z,70.22
2023-01-04T12:29:42.965Z,69.56
2023-01-04T12:32:11.190Z,69.91
2023-01-04T12:34:45.957Z,70.01
2023-01-04T12:37:51.269Z,70.19
2023-01-04T12:40:47.960Z,69.45
2023-01-04T12:43:16.260Z,70.11
2023-01-04T12:45:47.012Z,69.77
2023-01-04T12:48:45.879Z,67.80
2023-01-04T12:51:37.358Z,66.01
2023-01-04T12:54:23.267Z,65.13
2023-01-04T12:57:09.726Z,64.60
2023-01-04T12:59:53.270Z,63.90
2023-01-04T13:02:28.946Z,64.10
2023-01-04T13:05:53.161Z,64.27
2023-01-04T13:07:58.797Z,64.44
2023-01-04T13:10:36.633Z,63.85
2023-01-04T13:13:29.635Z,63.54
2023-01-04T13:16:07.149Z,62.60
2023-01-04T13:18:43.308Z,61.24
2023-01-04T13:21:28.287Z,62.38
2023-01-04T13:23:59.985Z,62.33
2023-01-04T13:26:40.548Z,62.00
2023-01-04T13:29:15.867Z,62.59
2023-01-04T13:31:53.289Z,62.80
2023-01-04T13:34:21.710Z,63.14
2023-01-04T13:37:27.529Z,63.42
2023-01-04T13:40:20.845Z,62.80
2023-01-04T13:43:28.956Z,63.41
2023-01-04T13:46:19.296Z,62.59
2023-01-04T13:48:50.927Z,63.11
2023-01-04T13:51:36.170Z,62.82
2023-01-04T13:54:17.044Z,62.44
2023-01-04T13:56:51.416Z,62.62
2023-01-04T13:59:23.329Z,62.96
2023-01-04T14:01:53.139Z,62.70
2023-01-04T14:04:30.612Z,62.43
2023-01-04T14:07:01.634Z,62.45
2023-01-04T14:09:42.504Z,62.85
2023-01-04T14:12:17.894Z,63.18
2023-01-04T14:15:01.161Z,63.18
2023-01-04T14:17:36.299Z,63.38
2023-01-04T14:20:26.696Z,63.36
2023-01-04T14:22:57.055Z,63.58
2023-01-04T14:25:42.009Z,63.66
2023-01-04T14:28:19.728Z,63.25
2023-01-04T14:30:52.664Z,63.66
2023-01-04T14:33:26.304Z,63.75
2023-01-04T14:36:06.452Z,63.76
2023-01-04T14:38:50.891Z,63.72
2023-01-04T14:41:31.405Z,63.96
2023-01-04T14:43:59.766Z,64.24
2023-01-04T14:46:30.264Z,64.19
2023-01-04T14:48:59.176Z,64.30
2023-01-04T14:51:42.208Z,64.38
2023-01-04T14:54:13.751Z,64.41
2023-01-04T14:56:43.802Z,64.43
2023-01-04T14:59:12.637Z,64.49
2023-01-04T15:01:41.001Z,64.51
2023-01-04T15:04:09.475Z,64.70
2023-01-04T15:06:47.755Z,64.75
2023-01-04T15:09:25.636Z,64.64
2023-01-04T15:11:55.439Z,64.02
2023-01-04T15:14:24.176Z,63.96
2023-01-04T15:16:52.537Z,63.73
2023-01-04T15:19:21.390Z,64.08
2023-01-04T15:21:53.232Z,64.49
2023-01-04T15:24:21.714Z,64.40
2023-01-04T15:26:50.122Z,64.04
2023-01-04T15:29:18.497Z,64.18
2023-01-04T15:31:46.938Z,64.15
2023-01-04T15:34:15.418Z,64.23
2023-01-04T15:36:44.240Z,64.00
2023-01-04T15:39:15.755Z,63.81
2023-01-04T15:42:02.829Z,63.69
2023-01-04T15:44:31.348Z,63.91
2023-01-04T15:47:00.093Z,63.97
2023-01-04T15:49:31.810Z,63.42
2023-01-04T15:52:00.166Z,63.30
2023-01-04T15:54:28.898Z,63.71
2023-01-04T15:56:57.624Z,63.51
2023-01-04T15:59:26.595Z,64.04
2023-01-04T16:01:55.062Z,63.96
2023-01-04T16:04:23.696Z,64.24
2023-01-04T16:06:52.350Z,64.15
2023-01-04T16:09:20.762Z,64.24
2023-01-04T16:12:07.969Z,64.58
2023-01-04T16:14:36.459Z,64.44
2023-01-04T16:17:04.838Z,64.65
2023-01-04T16:19:34.316Z,64.75
2023-01-04T16:22:02.705Z,64.60
2023-01-04T16:25:09.183Z,64.90
2023-01-04T16:27:19.652Z,64.76
2023-01-04T16:29:51.035Z,65.00
2023-01-04T16:32:20.271Z,64.76
2023-01-04T16:34:50.643Z,65.06
2023-01-04T16:37:19.312Z,65.26
2023-01-04T16:40:07.757Z,65.76
2023-01-04T16:42:40.312Z,65.97
2023-01-04T16:45:09.589Z,66.04
2023-01-04T16:47:41.159Z,65.81
2023-01-04T16:50:13.040Z,65.67
2023-01-04T16:52:41.711Z,65.85
2023-01-04T16:55:11.063Z,65.61
2023-01-04T16:57:39.414Z,65.93
2023-01-04T17:00:08.574Z,65.82
2023-01-04T17:02:37.114Z,65.66
2023-01-04T17:05:05.842Z,65.63
2023-01-04T17:07:34.660Z,65.70
2023-01-04T17:10:03.221Z,65.83
2023-01-04T17:12:48.496Z,65.88
2023-01-04T17:18:07.093Z,65.91
2023-01-04T17:20:35.874Z,65.92
2023-01-04T17:23:04.683Z,65.81
2023-01-04T17:25:33.119Z,65.90
2023-01-04T17:28:01.740Z,65.96
2023-01-04T17:30:39.428Z,65.85
2023-01-04T17:33:19.467Z,66.13
2023-01-04T17:35:47.986Z,66.38
2023-01-04T17:38:17.133Z,66.20
2023-01-04T17:40:45.429Z,66.62
2023-01-04T17:43:14.324Z,66.79
2023-01-04T17:45:43.795Z,66.98
2023-01-04T17:48:12.249Z,67.35
2023-01-04T17:50:40.655Z,67.69
2023-01-04T17:53:11.688Z,67.80
2023-01-04T17:55:39.982Z,68.26
2023-01-04T17:58:11.720Z,68.55
2023-01-04T18:00:41.511Z,68.94
2023-01-04T18:03:09.973Z,69.12
2023-01-04T18:05:51.300Z,69.51
2023-01-04T18:08:21.748Z,69.78
2023-01-04T18:11:06.917Z,70.15
2023-01-04T18:13:37.677Z,70.38
2023-01-04T18:16:23.892Z,70.71
2023-01-04T18:18:55.066Z,70.81
2023-01-04T18:21:28.928Z,70.81
2023-01-04T18:29:38.475Z,71.46
2023-01-04T18:32:06.970Z,71.82
2023-01-04T18:34:35.476Z,72.11
2023-01-04T18:37:06.855Z,72.47
2023-01-04T18:39:35.239Z,72.88
2023-01-04T18:42:03.895Z,73.32
2023-01-04T18:44:34.879Z,73.65
2023-01-04T18:47:04.068Z,74.04
2023-01-04T18:49:32.519Z,74.51
2023-01-04T18:52:01.313Z,74.87
2023-01-04T18:54:31.786Z,75.04
2023-01-04T18:57:01.300Z,75.23
2023-01-04T18:59:30.496Z,75.51
2023-01-04T19:02:01.600Z,75.57
2023-01-04T19:04:35.562Z,75.76
2023-01-04T19:07:04.069Z,75.95
2023-01-04T19:09:32.569Z,76.20
2023-01-04T19:12:02.145Z,76.27
2023-01-04T19:14:45.001Z,76.28
2023-01-04T19:17:13.710Z,76.70
2023-01-04T19:19:43.349Z,76.84
2023-01-04T19:22:13.066Z,76.83
2023-01-04T19:24:42.438Z,77.03
2023-01-04T19:27:12.686Z,77.23
2023-01-04T19:29:44.438Z,77.35
2023-01-04T19:32:14.128Z,77.56
2023-01-04T19:34:43.248Z,77.60
2023-01-04T19:37:13.291Z,77.76
2023-01-04T19:39:42.346Z,78.25
2023-01-04T19:42:10.736Z,78.51
2023-01-04T19:44:39.662Z,78.64
2023-01-04T19:47:14.506Z,78.84
2023-01-04T19:49:52.760Z,79.18
2023-01-04T19:52:21.148Z,79.36
2023-01-04T19:54:50.814Z,79.45
2023-01-04T19:57:19.127Z,79.81
2023-01-04T19:59:47.698Z,80.02
2023-01-04T20:02:16.561Z,80.24
2023-01-04T20:04:46.413Z,80.64
2023-01-04T20:07:15.174Z,80.64
2023-01-04T20:09:46.045Z,80.60
2023-01-04T20:12:16.660Z,80.48
2023-01-04T20:14:47.063Z,80.47
2023-01-04T20:17:15.634Z,80.27
2023-01-04T20:19:44.240Z,80.29
2023-01-04T20:22:13.299Z,80.20
2023-01-04T20:24:42.163Z,80.13
2023-01-04T20:27:10.691Z,80.09
2023-01-04T20:29:39.631Z,80.26
2023-01-04T20:32:08.053Z,80.16
2023-01-04T20:34:36.550Z,80.08
2023-01-04T20:37:04.912Z,79.99
2023-01-04T20:39:33.903Z,79.96
2023-01-04T20:42:21.108Z,79.87
2023-01-04T20:44:49.560Z,79.88
2023-01-04T20:47:17.917Z,79.67
2023-01-04T20:49:49.202Z,79.68
2023-01-04T20:56:37.696Z,79.84
2023-01-04T20:59:07.098Z,79.88
2023-01-04T21:01:36.768Z,79.78
2023-01-04T21:04:05.777Z,80.01
2023-01-04T21:06:34.914Z,80.15
2023-01-04T21:09:03.288Z,80.30
2023-01-04T21:11:31.630Z,80.36
2023-01-04T21:14:01.795Z,80.66
2023-01-04T21:16:30.201Z,80.67
2023-01-04T21:18:58.978Z,80.96
2023-01-04T21:21:27.306Z,81.15
2023-01-04T21:23:58.115Z,81.18
2023-01-04T21:26:26.622Z,81.29
2023-01-04T21:28:54.953Z,81.10
2023-01-04T21:31:25.075Z,81.26
2023-01-04T21:33:54.447Z,81.36
2023-01-04T21:36:27.331Z,81.32
2023-01-04T21:38:58.520Z,81.29
2023-01-04T21:41:27.191Z,81.30
2023-01-04T21:43:57.736Z,81.35
2023-01-04T21:46:27.323Z,81.14
2023-01-04T21:48:59.243Z,81.15
2023-01-04T21:51:29.113Z,81.27
2023-01-04T21:53:57.763Z,81.20
2023-01-04T21:56:26.136Z,81.36
2023-01-04T21:58:54.496Z,81.12
2023-01-04T22:01:32.678Z,81.09
2023-01-04T22:04:05.469Z,81.19
2023-01-04T22:06:37.380Z,81.30
2023-01-04T22:09:07.198Z,81.41
2023-01-04T22:11:35.719Z,81.24
2023-01-04T22:14:04.927Z,81.32
2023-01-04T22:16:33.368Z,81.33
2023-01-04T22:19:01.794Z,81.37
2023-01-04T22:21:30.815Z,81.41
2023-01-04T22:23:59.603Z,81.52
2023-01-04T22:26:28.023Z,81.49
2023-01-04T22:28:56.374Z,81.51
2023-01-04T22:31:24.813Z,81.70
2023-01-04T22:33:53.140Z,81.79
2023-01-04T22:36:23.279Z,81.80
2023-01-04T22:38:53.428Z,81.84
2023-01-04T22:41:24.519Z,82.00
2023-01-04T22:44:10.982Z,82.13
2023-01-04T22:46:39.517Z,82.06
2023-01-04T22:49:07.845Z,82.13
2023-01-04T22:51:36.281Z,82.26
2023-01-04T22:54:05.864Z,82.45
2023-01-04T22:56:34.292Z,82.51
2023-01-04T22:59:03.846Z,82.53
2023-01-04T23:01:34.394Z,82.64
2023-01-04T23:04:03.194Z,82.68
2023-01-04T23:06:32.750Z,82.84
2023-01-04T23:09:07.933Z,82.85
2023-01-04T23:11:37.394Z,82.73
2023-01-04T23:14:08.064Z,82.76
2023-01-04T23:16:36.578Z,82.74
2023-01-04T23:19:06.702Z,82.79
2023-01-04T23:21:35.597Z,82.88
2023-01-04T23:24:06.215Z,82.71
2023-01-04T23:26:34.686Z,82.68
2023-01-04T23:29:03.737Z,82.75
2023-01-04T23:31:33.474Z,82.61
2023-01-04T23:34:04.694Z,82.52
2023-01-04T23:36:36.121Z,82.55
2023-01-04T23:39:08.599Z,82.66
2023-01-04T23:41:46.515Z,82.68
2023-01-04T23:44:27.158Z,82.79
2023-01-04T23:47:00.651Z,82.81
2023-01-04T23:49:31.438Z,82.88
2023-01-04T23:52:01.034Z,82.70
2023-01-04T23:54:30.041Z,82.88
2023-01-04T23:56:59.794Z,82.97
2023-01-04T23:59:28.470Z,83.20
